Flight Track Log - Related Links

Times and Time Zones

All times are in EDT time to prevent confusion due to time zone crossing. See the AAL993 flight status page for this flight to view local times or setup timezone preferences in your user account.

Time Position Orientation Groundspeed Altitude Reporting Facility
EDT Latitude Longitude Course Direction KTS MPH feet Rate Location/Type
Thu 07:15:15 PM 25.8006 -80.2606 193° South 191 220 700  Level Miami Center
Thu 07:16:28 PM 25.7669 -80.1836 116° Southeast 261 300 3,100 2,269 Climbing Miami Center
Thu 07:17:00 PM 25.4402 -80.4585 207° Southwest  Level Estimated
Thu 07:17:14 PM 25.7150 -80.1683 165° South 249 287 5,200  Level Miami Center
Thu 07:17:23 PM 25.7044 -80.1703 189° South 257 296 5,800 2,300 Climbing Miami Center
Thu 07:18:00 PM 25.3217 -80.5144 222° Southwest  Level Estimated
Thu 07:18:14 PM 25.6436 -80.1803 188° South 273 314 7,500  Level Miami Center
Thu 07:19:00 PM 25.2033 -80.5702 189° South  Level Estimated
Thu 07:19:14 PM 25.5739 -80.2197 207° Southwest 273 314 10,000  Level Miami Center
Thu 07:20:00 PM 25.0848 -80.6259 193° South  Level Estimated
Thu 07:20:14 PM 25.4933 -80.2614 205° Southwest 297 342 11,200  Level Miami Center
Thu 07:21:14 PM 25.4025 -80.3069 204° Southwest 330 380 13,300 2,200 Climbing Miami Center
Thu 07:22:14 PM 25.3097 -80.3503 203° Southwest 356 410 15,600 2,200 Climbing Miami Center
Thu 07:23:14 PM 25.2144 -80.3981 204° Southwest 368 423 17,700 2,000 Climbing Miami Center
Thu 07:24:14 PM 25.1131 -80.4481 204° Southwest 382 440 19,600 1,950 Climbing Miami Center
Thu 07:25:14 PM 25.0114 -80.5000 205° Southwest 393 452 21,600 1,850 Climbing Miami Center
Thu 07:26:14 PM 24.9036 -80.5519 204° Southwest 410 472 23,300 1,650 Climbing Miami Center
Thu 07:27:14 PM 24.7981 -80.6036 204° Southwest 415 478 24,900 1,450 Climbing Miami Center
Thu 07:28:14 PM 24.6858 -80.6594 204° Southwest 427 491 26,200 1,300 Climbing Miami Center
Thu 07:29:14 PM 24.5717 -80.7156 204° Southwest 439 505 27,500 1,250 Climbing Miami Center
Thu 07:30:14 PM 24.4531 -80.7733 204° Southwest 451 519 28,700 1,100 Climbing Miami Center
Thu 07:31:14 PM 24.3306 -80.8267 202° Southwest 464 534 29,700 1,000 Climbing Miami Center
Thu 07:32:14 PM 24.2078 -80.8842 203° Southwest 477 549 30,700 1,150 Climbing Miami Center
Thu 07:33:14 PM 24.0808 -80.9461 204° Southwest 483 556 32,000 1,300 Climbing Miami Center
Thu 07:35:00 PM 23.8612 -81.0502 203° Southwest  Level Estimated
Thu 07:42:00 PM 22.9903 -81.4593 203° Southwest  Level Estimated
Thu 07:43:00 PM 22.8669 -81.5168 203° Southwest  Level Estimated
Thu 07:44:00 PM 22.7434 -81.5742 203° Southwest  Level Estimated
Thu 07:45:00 PM 22.6199 -81.6315 203° Southwest  Level Estimated
Thu 07:46:00 PM 22.4964 -81.6887 203° Southwest  Level Estimated
Thu 07:47:00 PM 22.3729 -81.7458 203° Southwest  Level Estimated
Thu 07:48:00 PM 22.2494 -81.8028 203° Southwest  Level Estimated
Thu 07:49:00 PM 22.1258 -81.8597 203° Southwest  Level Estimated
Thu 07:50:00 PM 22.0022 -81.9165 203° Southwest  Level Estimated
Thu 07:51:00 PM 21.8786 -81.9732 203° Southwest  Level Estimated
Thu 07:52:00 PM 21.7550 -82.0298 203° Southwest  Level Estimated
Thu 07:53:00 PM 21.6314 -82.0863 203° Southwest  Level Estimated
Thu 07:54:00 PM 21.5077 -82.1427 203° Southwest  Level Estimated
Thu 07:55:00 PM 21.3841 -82.1991 203° Southwest  Level Estimated
Thu 07:56:00 PM 21.2604 -82.2553 203° Southwest  Level Estimated
Thu 07:57:00 PM 21.1367 -82.3114 203° Southwest  Level Estimated
Thu 07:58:00 PM 21.0129 -82.3674 203° Southwest  Level Estimated
Thu 07:59:00 PM 20.8892 -82.4233 203° Southwest  Level Estimated
Thu 08:00:00 PM 20.7654 -82.4792 203° Southwest  Level Estimated
Thu 08:01:00 PM 20.6416 -82.5349 203° Southwest  Level Estimated
Thu 08:02:00 PM 20.5178 -82.5906 203° Southwest  Level Estimated
Thu 08:03:00 PM 20.3940 -82.6462 203° Southwest  Level Estimated
Thu 08:04:00 PM 20.2702 -82.7017 203° Southwest  Level Estimated
Thu 08:05:00 PM 20.1463 -82.7570 203° Southwest  Level Estimated
Thu 08:06:00 PM 20.0224 -82.8123 203° Southwest  Level Estimated
Thu 08:07:00 PM 19.8986 -82.8676 203° Southwest  Level Estimated
Thu 08:08:00 PM 19.7746 -82.9227 203° Southwest  Level Estimated
Thu 08:09:00 PM 19.6507 -82.9777 203° Southwest  Level Estimated
Thu 08:10:00 PM 19.5268 -83.0327 203° Southwest  Level Estimated
Thu 08:11:00 PM 19.4028 -83.0876 203° Southwest  Level Estimated
Thu 08:12:00 PM 19.2789 -83.1424 203° Southwest  Level Estimated
Thu 08:13:00 PM 19.1549 -83.1971 203° Southwest  Level Estimated
Thu 08:14:00 PM 19.0309 -83.2517 203° Southwest  Level Estimated
Thu 08:15:00 PM 18.9068 -83.3063 203° Southwest  Level Estimated
Thu 08:16:00 PM 18.7828 -83.3607 203° Southwest  Level Estimated
Thu 08:17:00 PM 18.6588 -83.4151 203° Southwest  Level Estimated
Thu 08:18:00 PM 18.5347 -83.4694 203° Southwest  Level Estimated
Thu 08:19:00 PM 18.4106 -83.5237 203° Southwest  Level Estimated
Thu 08:20:00 PM 18.2865 -83.5778 203° Southwest  Level Estimated
Thu 08:21:00 PM 18.1624 -83.6319 202° Southwest  Level Estimated
Thu 08:22:00 PM 18.0383 -83.6859 202° Southwest  Level Estimated
Thu 08:23:00 PM 17.9141 -83.7398 202° Southwest  Level Estimated
Thu 08:24:00 PM 17.7900 -83.7936 202° Southwest  Level Estimated
Thu 08:25:00 PM 17.6658 -83.8474 202° Southwest  Level Estimated
Thu 08:26:00 PM 17.5416 -83.9011 202° Southwest  Level Estimated
Thu 08:27:00 PM 17.4174 -83.9547 202° Southwest  Level Estimated
Thu 08:28:00 PM 17.2932 -84.0082 202° Southwest  Level Estimated
Thu 08:29:00 PM 17.1689 -84.0617 202° Southwest  Level Estimated
Thu 08:30:00 PM 17.0447 -84.1151 202° Southwest  Level Estimated
Thu 08:31:00 PM 16.9204 -84.1684 202° Southwest  Level Estimated
Thu 08:32:00 PM 16.7962 -84.2217 202° Southwest  Level Estimated
Thu 08:33:00 PM 16.6719 -84.2749 202° Southwest  Level Estimated
Thu 08:34:00 PM 16.5476 -84.3280 202° Southwest  Level Estimated
Thu 08:35:00 PM 16.4233 -84.3811 202° Southwest  Level Estimated
Thu 08:36:00 PM 16.2989 -84.4341 202° Southwest  Level Estimated
Thu 08:37:00 PM 16.1746 -84.4870 202° Southwest  Level Estimated
Thu 08:38:00 PM 16.0502 -84.5398 202° Southwest  Level Estimated
Thu 08:39:00 PM 15.9259 -84.5926 202° Southwest  Level Estimated
Thu 08:40:00 PM 15.8015 -84.6453 202° Southwest  Level Estimated
Thu 08:41:00 PM 15.6771 -84.6980 202° Southwest  Level Estimated
Thu 08:42:00 PM 15.5527 -84.7506 202° Southwest  Level Estimated
Thu 08:43:00 PM 15.4283 -84.8031 202° Southwest  Level Estimated
Thu 08:44:00 PM 15.3039 -84.8556 202° Southwest  Level Estimated
Thu 08:45:00 PM 15.1794 -84.9080 202° Southwest  Level Estimated
Thu 08:46:00 PM 15.0550 -84.9603 202° Southwest  Level Estimated
Thu 08:47:00 PM 14.9305 -85.0126 202° Southwest  Level Estimated
Thu 08:48:00 PM 14.8060 -85.0648 202° Southwest  Level Estimated
Thu 08:49:00 PM 14.6815 -85.1170 202° Southwest  Level Estimated
Thu 08:50:00 PM 14.5570 -85.1691 202° Southwest  Level Estimated
Thu 08:51:00 PM 14.4325 -85.2211 202° Southwest  Level Estimated
Thu 08:52:00 PM 14.3080 -85.2731 202° Southwest  Level Estimated
Thu 08:53:00 PM 14.1835 -85.3251 202° Southwest  Level Estimated
Thu 08:54:00 PM 14.0589 -85.3769 202° Southwest  Level Estimated
Thu 08:55:00 PM 13.9344 -85.4287 202° Southwest  Level Estimated
Thu 08:56:00 PM 13.8098 -85.4805 202° Southwest  Level Estimated
Thu 08:57:00 PM 13.6852 -85.5322 202° Southwest  Level Estimated
Thu 08:58:00 PM 13.5606 -85.5838 202° Southwest  Level Estimated
Thu 08:59:00 PM 13.4327 -85.6368 202° Southwest  Level Estimated
Thu 09:00:00 PM 13.3049 -85.6897 202° Southwest  Level Estimated
Thu 09:01:00 PM 13.1770 -85.7425 202° Southwest  Level Estimated
Thu 09:02:00 PM 13.0491 -85.7953 202° Southwest  Level Estimated
Thu 09:03:00 PM 12.9211 -85.8481 202° Southwest  Level Estimated
Thu 09:04:00 PM 12.7932 -85.9007 202° Southwest  Level Estimated
Thu 09:05:00 PM 12.6653 -85.9533 202° Southwest  Level Estimated
Thu 09:06:00 PM 12.5373 -86.0059 202° Southwest  Level Estimated
Thu 09:07:00 PM 12.4094 -86.0584 202° Southwest  Level Estimated
Thu 09:08:00 PM 12.2814 -86.1109 202° Southwest  Level Estimated
Thu 09:09:00 PM 12.1534 -86.1633 202° Southwest  Level Estimated
Thu 09:10:00 PM 12.1415 -86.1682 202° Southwest  Level Estimated
Thu 09:11:00 PM 12.1415 -86.1682 26° Northeast  Level Estimated
Thu 09:12:00 PM 12.1415 -86.1682 26° Northeast  Level Estimated
Thu 09:13:00 PM 12.1415 -86.1682 26° Northeast  Level Estimated
Thu 09:14:00 PM 12.1415 -86.1682 26° Northeast  Level Estimated
Thu 09:15:00 PM 12.1415 -86.1682 26° Northeast  Level Estimated

Login

Don't have an account? Register now (free) for customized features, flight alerts, and more!